sensor_id;sensor_type;location;lat;lon;timestamp;P1;durP1;ratioP1;P2;durP2;ratioP2
24787;SDS011;12883;52.662;5.196;2023-03-14T00:00:12;5.27;;;5.17;;
24787;SDS011;12883;52.662;5.196;2023-03-14T00:02:39;3.40;;;3.40;;
24787;SDS011;12883;52.662;5.196;2023-03-14T00:05:06;4.17;;;4.17;;
24787;SDS011;12883;52.662;5.196;2023-03-14T00:07:33;4.10;;;4.10;;
24787;SDS011;12883;52.662;5.196;2023-03-14T00:10:00;4.37;;;4.37;;
24787;SDS011;12883;52.662;5.196;2023-03-14T00:12:29;5.33;;;5.23;;
24787;SDS011;12883;52.662;5.196;2023-03-14T00:14:54;4.13;;;4.10;;
24787;SDS011;12883;52.662;5.196;2023-03-14T00:17:19;5.30;;;5.20;;
24787;SDS011;12883;52.662;5.196;2023-03-14T00:19:45;4.30;;;4.30;;
24787;SDS011;12883;52.662;5.196;2023-03-14T00:22:10;4.77;;;4.70;;
24787;SDS011;12883;52.662;5.196;2023-03-14T00:24:35;4.93;;;4.83;;
24787;SDS011;12883;52.662;5.196;2023-03-14T00:27:01;4.07;;;4.07;;
24787;SDS011;12883;52.662;5.196;2023-03-14T00:29:26;4.77;;;4.70;;
24787;SDS011;12883;52.662;5.196;2023-03-14T00:31:51;4.37;;;4.30;;
24787;SDS011;12883;52.662;5.196;2023-03-14T00:34:17;5.60;;;5.50;;
24787;SDS011;12883;52.662;5.196;2023-03-14T00:36:42;4.70;;;4.60;;
24787;SDS011;12883;52.662;5.196;2023-03-14T00:39:07;4.27;;;4.23;;
24787;SDS011;12883;52.662;5.196;2023-03-14T00:41:33;4.47;;;4.37;;
24787;SDS011;12883;52.662;5.196;2023-03-14T00:43:58;4.47;;;4.47;;
24787;SDS011;12883;52.662;5.196;2023-03-14T00:46:23;4.00;;;4.00;;
24787;SDS011;12883;52.662;5.196;2023-03-14T00:48:49;4.40;;;4.30;;
24787;SDS011;12883;52.662;5.196;2023-03-14T00:51:14;4.63;;;4.57;;
24787;SDS011;12883;52.662;5.196;2023-03-14T00:53:40;4.00;;;4.00;;
24787;SDS011;12883;52.662;5.196;2023-03-14T00:56:08;3.77;;;3.77;;
24787;SDS011;12883;52.662;5.196;2023-03-14T00:58:34;3.83;;;3.73;;
24787;SDS011;12883;52.662;5.196;2023-03-14T01:01:04;3.57;;;3.57;;
24787;SDS011;12883;52.662;5.196;2023-03-14T01:03:40;4.17;;;4.17;;
24787;SDS011;12883;52.662;5.196;2023-03-14T01:06:07;3.97;;;3.97;;
24787;SDS011;12883;52.662;5.196;2023-03-14T01:08:35;4.37;;;4.37;;
24787;SDS011;12883;52.662;5.196;2023-03-14T01:11:04;4.00;;;3.97;;
24787;SDS011;12883;52.662;5.196;2023-03-14T01:13:31;4.13;;;4.13;;
24787;SDS011;12883;52.662;5.196;2023-03-14T01:16:00;3.83;;;3.83;;
24787;SDS011;12883;52.662;5.196;2023-03-14T01:18:26;3.20;;;3.20;;
24787;SDS011;12883;52.662;5.196;2023-03-14T01:20:52;4.60;;;4.60;;
24787;SDS011;12883;52.662;5.196;2023-03-14T01:23:17;3.20;;;3.20;;
24787;SDS011;12883;52.662;5.196;2023-03-14T01:25:42;4.03;;;4.03;;
24787;SDS011;12883;52.662;5.196;2023-03-14T01:28:08;4.47;;;4.47;;
24787;SDS011;12883;52.662;5.196;2023-03-14T01:30:33;3.40;;;3.40;;
24787;SDS011;12883;52.662;5.196;2023-03-14T01:32:58;4.03;;;4.03;;
24787;SDS011;12883;52.662;5.196;2023-03-14T01:35:24;3.83;;;3.80;;
24787;SDS011;12883;52.662;5.196;2023-03-14T01:37:49;4.07;;;4.00;;
24787;SDS011;12883;52.662;5.196;2023-03-14T01:40:14;4.03;;;4.00;;
24787;SDS011;12883;52.662;5.196;2023-03-14T01:42:45;4.47;;;4.37;;
24787;SDS011;12883;52.662;5.196;2023-03-14T01:48:22;4.27;;;4.20;;
24787;SDS011;12883;52.662;5.196;2023-03-14T01:50:47;5.60;;;5.50;;
24787;SDS011;12883;52.662;5.196;2023-03-14T01:53:13;4.67;;;4.57;;
24787;SDS011;12883;52.662;5.196;2023-03-14T01:55:39;4.77;;;4.67;;
24787;SDS011;12883;52.662;5.196;2023-03-14T01:58:05;5.63;;;5.53;;
24787;SDS011;12883;52.662;5.196;2023-03-14T02:00:30;5.90;;;5.80;;
24787;SDS011;12883;52.662;5.196;2023-03-14T02:02:58;6.10;;;6.00;;
24787;SDS011;12883;52.662;5.196;2023-03-14T02:05:27;5.93;;;5.83;;
24787;SDS011;12883;52.662;5.196;2023-03-14T02:07:58;5.80;;;5.70;;
24787;SDS011;12883;52.662;5.196;2023-03-14T02:10:29;6.17;;;6.07;;
24787;SDS011;12883;52.662;5.196;2023-03-14T02:12:57;6.33;;;6.23;;
24787;SDS011;12883;52.662;5.196;2023-03-14T02:15:26;6.43;;;6.33;;
24787;SDS011;12883;52.662;5.196;2023-03-14T02:17:51;7.20;;;7.10;;
24787;SDS011;12883;52.662;5.196;2023-03-14T02:23:14;7.20;;;7.10;;
24787;SDS011;12883;52.662;5.196;2023-03-14T02:25:48;6.90;;;6.80;;
24787;SDS011;12883;52.662;5.196;2023-03-14T02:28:19;6.40;;;6.30;;
24787;SDS011;12883;52.662;5.196;2023-03-14T02:30:45;7.20;;;7.10;;
24787;SDS011;12883;52.662;5.196;2023-03-14T02:33:12;6.23;;;6.13;;
24787;SDS011;12883;52.662;5.196;2023-03-14T02:35:41;7.57;;;7.47;;
24787;SDS011;12883;52.662;5.196;2023-03-14T02:38:22;7.30;;;7.20;;
24787;SDS011;12883;52.662;5.196;2023-03-14T02:41:04;6.13;;;6.03;;
24787;SDS011;12883;52.662;5.196;2023-03-14T02:43:30;6.97;;;6.87;;
24787;SDS011;12883;52.662;5.196;2023-03-14T02:45:55;6.53;;;6.43;;
24787;SDS011;12883;52.662;5.196;2023-03-14T02:48:25;6.80;;;6.70;;
24787;SDS011;12883;52.662;5.196;2023-03-14T02:50:56;6.40;;;6.30;;
24787;SDS011;12883;52.662;5.196;2023-03-14T02:53:28;6.33;;;6.23;;
24787;SDS011;12883;52.662;5.196;2023-03-14T02:55:56;6.40;;;6.30;;
24787;SDS011;12883;52.662;5.196;2023-03-14T02:58:21;5.40;;;5.30;;
24787;SDS011;12883;52.662;5.196;2023-03-14T03:00:47;5.27;;;5.17;;
24787;SDS011;12883;52.662;5.196;2023-03-14T03:03:12;6.03;;;5.93;;
24787;SDS011;12883;52.662;5.196;2023-03-14T03:05:38;6.37;;;6.27;;
24787;SDS011;12883;52.662;5.196;2023-03-14T03:08:03;5.43;;;5.33;;
24787;SDS011;12883;52.662;5.196;2023-03-14T03:10:29;5.57;;;5.47;;
24787;SDS011;12883;52.662;5.196;2023-03-14T03:12:56;6.17;;;6.07;;
24787;SDS011;12883;52.662;5.196;2023-03-14T03:15:21;5.20;;;5.10;;
24787;SDS011;12883;52.662;5.196;2023-03-14T03:17:47;5.73;;;5.63;;
24787;SDS011;12883;52.662;5.196;2023-03-14T03:20:12;5.90;;;5.80;;
24787;SDS011;12883;52.662;5.196;2023-03-14T03:22:38;5.87;;;5.77;;
24787;SDS011;12883;52.662;5.196;2023-03-14T03:25:04;6.53;;;6.43;;
24787;SDS011;12883;52.662;5.196;2023-03-14T03:27:31;5.37;;;5.27;;
24787;SDS011;12883;52.662;5.196;2023-03-14T03:29:57;5.90;;;5.80;;
24787;SDS011;12883;52.662;5.196;2023-03-14T03:32:23;5.33;;;5.23;;
24787;SDS011;12883;52.662;5.196;2023-03-14T03:34:48;4.87;;;4.77;;
24787;SDS011;12883;52.662;5.196;2023-03-14T03:37:14;5.30;;;5.20;;
24787;SDS011;12883;52.662;5.196;2023-03-14T03:39:39;4.23;;;4.13;;
24787;SDS011;12883;52.662;5.196;2023-03-14T03:42:04;4.60;;;4.53;;
24787;SDS011;12883;52.662;5.196;2023-03-14T03:44:30;4.93;;;4.83;;
24787;SDS011;12883;52.662;5.196;2023-03-14T03:46:55;4.73;;;4.63;;
24787;SDS011;12883;52.662;5.196;2023-03-14T03:49:20;4.93;;;4.93;;
24787;SDS011;12883;52.662;5.196;2023-03-14T03:51:46;4.77;;;4.67;;
24787;SDS011;12883;52.662;5.196;2023-03-14T03:54:11;4.67;;;4.57;;
24787;SDS011;12883;52.662;5.196;2023-03-14T03:56:36;5.00;;;4.90;;
24787;SDS011;12883;52.662;5.196;2023-03-14T03:59:02;5.43;;;5.33;;
24787;SDS011;12883;52.662;5.196;2023-03-14T04:01:27;5.03;;;4.93;;
24787;SDS011;12883;52.662;5.196;2023-03-14T04:03:52;4.43;;;4.43;;
24787;SDS011;12883;52.662;5.196;2023-03-14T04:06:18;4.83;;;4.73;;
24787;SDS011;12883;52.662;5.196;2023-03-14T04:08:43;4.03;;;4.03;;
24787;SDS011;12883;52.662;5.196;2023-03-14T04:11:09;4.93;;;4.93;;
24787;SDS011;12883;52.662;5.196;2023-03-14T04:13:34;4.23;;;4.23;;
24787;SDS011;12883;52.662;5.196;2023-03-14T04:16:00;3.83;;;3.83;;
24787;SDS011;12883;52.662;5.196;2023-03-14T04:18:25;4.07;;;4.07;;
24787;SDS011;12883;52.662;5.196;2023-03-14T04:20:52;4.63;;;4.63;;
24787;SDS011;12883;52.662;5.196;2023-03-14T04:23:21;4.70;;;4.70;;
24787;SDS011;12883;52.662;5.196;2023-03-14T04:25:49;5.27;;;5.27;;
24787;SDS011;12883;52.662;5.196;2023-03-14T04:28:15;5.07;;;5.07;;
24787;SDS011;12883;52.662;5.196;2023-03-14T04:30:40;4.80;;;4.80;;
24787;SDS011;12883;52.662;5.196;2023-03-14T04:33:06;5.33;;;5.23;;
24787;SDS011;12883;52.662;5.196;2023-03-14T04:35:32;4.73;;;4.73;;
24787;SDS011;12883;52.662;5.196;2023-03-14T04:37:58;4.60;;;4.60;;
24787;SDS011;12883;52.662;5.196;2023-03-14T04:40:24;4.20;;;4.20;;
24787;SDS011;12883;52.662;5.196;2023-03-14T04:42:49;4.60;;;4.60;;
24787;SDS011;12883;52.662;5.196;2023-03-14T04:45:15;4.43;;;4.43;;
24787;SDS011;12883;52.662;5.196;2023-03-14T04:47:40;3.90;;;3.90;;
24787;SDS011;12883;52.662;5.196;2023-03-14T04:50:06;3.73;;;3.73;;
24787;SDS011;12883;52.662;5.196;2023-03-14T04:52:31;3.90;;;3.90;;
24787;SDS011;12883;52.662;5.196;2023-03-14T04:54:56;4.27;;;4.27;;
24787;SDS011;12883;52.662;5.196;2023-03-14T04:57:22;4.30;;;4.30;;
24787;SDS011;12883;52.662;5.196;2023-03-14T04:59:47;4.40;;;4.40;;
24787;SDS011;12883;52.662;5.196;2023-03-14T05:02:12;3.93;;;3.93;;
24787;SDS011;12883;52.662;5.196;2023-03-14T05:04:38;4.07;;;4.07;;
24787;SDS011;12883;52.662;5.196;2023-03-14T05:07:03;5.03;;;5.03;;
24787;SDS011;12883;52.662;5.196;2023-03-14T05:09:28;3.60;;;3.60;;
24787;SDS011;12883;52.662;5.196;2023-03-14T05:11:54;4.07;;;4.07;;
24787;SDS011;12883;52.662;5.196;2023-03-14T05:14:19;4.13;;;4.13;;
24787;SDS011;12883;52.662;5.196;2023-03-14T05:16:45;4.57;;;4.57;;
24787;SDS011;12883;52.662;5.196;2023-03-14T05:19:10;4.20;;;4.20;;
24787;SDS011;12883;52.662;5.196;2023-03-14T05:21:36;3.43;;;3.43;;
24787;SDS011;12883;52.662;5.196;2023-03-14T05:24:01;3.33;;;3.33;;
24787;SDS011;12883;52.662;5.196;2023-03-14T05:26:26;3.33;;;3.33;;
24787;SDS011;12883;52.662;5.196;2023-03-14T05:28:52;4.10;;;4.10;;
24787;SDS011;12883;52.662;5.196;2023-03-14T05:31:17;3.13;;;3.13;;
24787;SDS011;12883;52.662;5.196;2023-03-14T05:33:42;3.50;;;3.50;;
24787;SDS011;12883;52.662;5.196;2023-03-14T05:36:08;3.07;;;3.07;;
24787;SDS011;12883;52.662;5.196;2023-03-14T05:38:33;2.13;;;2.13;;
24787;SDS011;12883;52.662;5.196;2023-03-14T05:40:59;2.60;;;2.60;;
24787;SDS011;12883;52.662;5.196;2023-03-14T05:43:24;1.50;;;1.50;;
24787;SDS011;12883;52.662;5.196;2023-03-14T05:45:49;1.83;;;1.83;;
24787;SDS011;12883;52.662;5.196;2023-03-14T05:48:15;1.37;;;1.37;;
24787;SDS011;12883;52.662;5.196;2023-03-14T05:50:41;1.50;;;1.50;;
24787;SDS011;12883;52.662;5.196;2023-03-14T05:53:07;1.60;;;1.60;;
24787;SDS011;12883;52.662;5.196;2023-03-14T05:55:32;1.23;;;1.23;;
24787;SDS011;12883;52.662;5.196;2023-03-14T05:57:58;1.50;;;1.50;;
24787;SDS011;12883;52.662;5.196;2023-03-14T06:00:23;1.50;;;1.50;;
24787;SDS011;12883;52.662;5.196;2023-03-14T06:02:48;1.63;;;1.63;;
24787;SDS011;12883;52.662;5.196;2023-03-14T06:05:14;0.83;;;0.83;;
24787;SDS011;12883;52.662;5.196;2023-03-14T06:07:39;1.30;;;1.30;;
24787;SDS011;12883;52.662;5.196;2023-03-14T06:10:05;0.80;;;0.80;;
24787;SDS011;12883;52.662;5.196;2023-03-14T06:12:30;1.07;;;1.07;;
24787;SDS011;12883;52.662;5.196;2023-03-14T06:14:56;1.27;;;1.27;;
24787;SDS011;12883;52.662;5.196;2023-03-14T06:17:21;1.93;;;1.93;;
24787;SDS011;12883;52.662;5.196;2023-03-14T06:19:46;0.80;;;0.80;;
24787;SDS011;12883;52.662;5.196;2023-03-14T06:22:12;1.20;;;1.20;;
24787;SDS011;12883;52.662;5.196;2023-03-14T06:24:38;1.33;;;1.33;;
24787;SDS011;12883;52.662;5.196;2023-03-14T06:27:03;0.90;;;0.90;;
24787;SDS011;12883;52.662;5.196;2023-03-14T06:29:29;1.10;;;1.10;;
24787;SDS011;12883;52.662;5.196;2023-03-14T06:31:55;1.10;;;1.10;;
24787;SDS011;12883;52.662;5.196;2023-03-14T06:34:20;2.20;;;2.20;;
24787;SDS011;12883;52.662;5.196;2023-03-14T06:36:46;2.40;;;2.40;;
24787;SDS011;12883;52.662;5.196;2023-03-14T06:39:11;2.40;;;2.40;;
24787;SDS011;12883;52.662;5.196;2023-03-14T06:41:37;2.63;;;2.63;;
24787;SDS011;12883;52.662;5.196;2023-03-14T06:44:02;3.43;;;3.37;;
24787;SDS011;12883;52.662;5.196;2023-03-14T06:46:28;3.73;;;3.63;;
24787;SDS011;12883;52.662;5.196;2023-03-14T06:48:53;3.60;;;3.57;;
24787;SDS011;12883;52.662;5.196;2023-03-14T06:51:19;2.93;;;2.93;;
24787;SDS011;12883;52.662;5.196;2023-03-14T06:53:44;2.43;;;2.43;;
24787;SDS011;12883;52.662;5.196;2023-03-14T06:56:09;2.47;;;2.47;;
24787;SDS011;12883;52.662;5.196;2023-03-14T06:58:35;2.53;;;2.53;;
24787;SDS011;12883;52.662;5.196;2023-03-14T07:01:00;2.40;;;2.40;;
24787;SDS011;12883;52.662;5.196;2023-03-14T07:03:25;2.60;;;2.57;;
24787;SDS011;12883;52.662;5.196;2023-03-14T07:05:51;2.07;;;2.07;;
24787;SDS011;12883;52.662;5.196;2023-03-14T07:08:16;2.13;;;2.13;;
24787;SDS011;12883;52.662;5.196;2023-03-14T07:10:42;1.70;;;1.70;;
24787;SDS011;12883;52.662;5.196;2023-03-14T07:13:07;2.00;;;2.00;;
24787;SDS011;12883;52.662;5.196;2023-03-14T07:15:32;1.27;;;1.27;;
24787;SDS011;12883;52.662;5.196;2023-03-14T07:17:58;1.53;;;1.53;;
24787;SDS011;12883;52.662;5.196;2023-03-14T07:20:23;1.20;;;1.20;;
24787;SDS011;12883;52.662;5.196;2023-03-14T07:22:49;1.93;;;1.93;;
24787;SDS011;12883;52.662;5.196;2023-03-14T07:25:15;2.03;;;2.03;;
24787;SDS011;12883;52.662;5.196;2023-03-14T07:27:42;1.80;;;1.80;;
24787;SDS011;12883;52.662;5.196;2023-03-14T07:30:12;1.50;;;1.50;;
24787;SDS011;12883;52.662;5.196;2023-03-14T07:32:39;1.30;;;1.30;;
24787;SDS011;12883;52.662;5.196;2023-03-14T07:35:04;1.37;;;1.37;;
24787;SDS011;12883;52.662;5.196;2023-03-14T07:37:30;1.53;;;1.53;;
24787;SDS011;12883;52.662;5.196;2023-03-14T07:39:56;1.20;;;1.20;;
24787;SDS011;12883;52.662;5.196;2023-03-14T07:42:21;1.47;;;1.47;;
24787;SDS011;12883;52.662;5.196;2023-03-14T07:44:46;1.50;;;1.50;;
24787;SDS011;12883;52.662;5.196;2023-03-14T07:47:12;2.37;;;2.37;;
24787;SDS011;12883;52.662;5.196;2023-03-14T07:49:37;2.40;;;2.40;;
24787;SDS011;12883;52.662;5.196;2023-03-14T07:52:03;2.83;;;2.83;;
24787;SDS011;12883;52.662;5.196;2023-03-14T07:54:28;3.43;;;3.43;;
24787;SDS011;12883;52.662;5.196;2023-03-14T07:56:53;3.77;;;3.67;;
24787;SDS011;12883;52.662;5.196;2023-03-14T07:59:19;3.13;;;3.03;;
24787;SDS011;12883;52.662;5.196;2023-03-14T08:01:45;3.50;;;3.50;;
24787;SDS011;12883;52.662;5.196;2023-03-14T08:04:10;3.30;;;3.20;;
24787;SDS011;12883;52.662;5.196;2023-03-14T08:06:36;3.83;;;3.77;;
24787;SDS011;12883;52.662;5.196;2023-03-14T08:09:02;3.90;;;3.87;;
24787;SDS011;12883;52.662;5.196;2023-03-14T08:11:28;4.43;;;4.43;;
24787;SDS011;12883;52.662;5.196;2023-03-14T08:13:53;4.43;;;4.33;;
24787;SDS011;12883;52.662;5.196;2023-03-14T08:16:19;4.17;;;4.07;;
24787;SDS011;12883;52.662;5.196;2023-03-14T08:18:45;4.10;;;4.00;;
24787;SDS011;12883;52.662;5.196;2023-03-14T08:21:11;3.40;;;3.40;;
24787;SDS011;12883;52.662;5.196;2023-03-14T08:23:37;3.97;;;3.97;;
24787;SDS011;12883;52.662;5.196;2023-03-14T08:26:02;5.23;;;5.13;;
24787;SDS011;12883;52.662;5.196;2023-03-14T08:28:28;3.97;;;3.87;;
24787;SDS011;12883;52.662;5.196;2023-03-14T08:30:56;4.73;;;4.63;;
24787;SDS011;12883;52.662;5.196;2023-03-14T08:33:22;4.57;;;4.47;;
24787;SDS011;12883;52.662;5.196;2023-03-14T08:35:51;4.80;;;4.70;;
24787;SDS011;12883;52.662;5.196;2023-03-14T08:38:17;3.50;;;3.50;;
24787;SDS011;12883;52.662;5.196;2023-03-14T08:40:42;4.00;;;4.00;;
24787;SDS011;12883;52.662;5.196;2023-03-14T08:43:08;4.80;;;4.70;;
24787;SDS011;12883;52.662;5.196;2023-03-14T08:45:33;4.17;;;4.07;;
24787;SDS011;12883;52.662;5.196;2023-03-14T08:47:58;4.90;;;4.80;;
24787;SDS011;12883;52.662;5.196;2023-03-14T08:50:24;4.30;;;4.20;;
24787;SDS011;12883;52.662;5.196;2023-03-14T08:52:50;5.03;;;4.93;;
24787;SDS011;12883;52.662;5.196;2023-03-14T08:55:15;5.17;;;5.07;;
24787;SDS011;12883;52.662;5.196;2023-03-14T08:57:41;4.80;;;4.70;;
24787;SDS011;12883;52.662;5.196;2023-03-14T09:00:06;4.87;;;4.77;;
24787;SDS011;12883;52.662;5.196;2023-03-14T09:02:40;4.03;;;3.93;;
24787;SDS011;12883;52.662;5.196;2023-03-14T09:05:06;4.53;;;4.43;;
24787;SDS011;12883;52.662;5.196;2023-03-14T09:07:32;4.30;;;4.20;;
24787;SDS011;12883;52.662;5.196;2023-03-14T09:09:57;3.57;;;3.57;;
24787;SDS011;12883;52.662;5.196;2023-03-14T09:12:23;3.70;;;3.60;;
24787;SDS011;12883;52.662;5.196;2023-03-14T09:14:48;4.10;;;4.10;;
24787;SDS011;12883;52.662;5.196;2023-03-14T09:17:14;5.20;;;5.10;;
24787;SDS011;12883;52.662;5.196;2023-03-14T09:19:39;4.80;;;4.70;;
24787;SDS011;12883;52.662;5.196;2023-03-14T09:22:04;5.43;;;5.33;;
24787;SDS011;12883;52.662;5.196;2023-03-14T09:24:30;5.57;;;5.47;;
24787;SDS011;12883;52.662;5.196;2023-03-14T09:26:55;5.10;;;5.00;;
24787;SDS011;12883;52.662;5.196;2023-03-14T09:29:23;4.33;;;4.23;;
24787;SDS011;12883;52.662;5.196;2023-03-14T09:31:49;5.60;;;5.50;;
24787;SDS011;12883;52.662;5.196;2023-03-14T09:34:15;5.77;;;5.67;;
24787;SDS011;12883;52.662;5.196;2023-03-14T09:36:40;6.00;;;5.90;;
24787;SDS011;12883;52.662;5.196;2023-03-14T09:39:06;5.17;;;5.07;;
24787;SDS011;12883;52.662;5.196;2023-03-14T09:41:36;5.60;;;5.50;;
24787;SDS011;12883;52.662;5.196;2023-03-14T09:44:50;5.00;;;4.90;;
24787;SDS011;12883;52.662;5.196;2023-03-14T09:46:56;4.70;;;4.60;;
24787;SDS011;12883;52.662;5.196;2023-03-14T09:49:32;5.30;;;5.20;;
24787;SDS011;12883;52.662;5.196;2023-03-14T09:52:00;5.80;;;5.70;;
24787;SDS011;12883;52.662;5.196;2023-03-14T09:54:31;5.53;;;5.43;;
24787;SDS011;12883;52.662;5.196;2023-03-14T09:56:57;5.70;;;5.60;;
24787;SDS011;12883;52.662;5.196;2023-03-14T09:59:22;5.27;;;5.17;;
24787;SDS011;12883;52.662;5.196;2023-03-14T10:01:47;4.93;;;4.83;;
24787;SDS011;12883;52.662;5.196;2023-03-14T10:04:14;4.43;;;4.33;;
24787;SDS011;12883;52.662;5.196;2023-03-14T10:06:42;4.03;;;4.03;;
24787;SDS011;12883;52.662;5.196;2023-03-14T10:09:10;4.30;;;4.20;;
24787;SDS011;12883;52.662;5.196;2023-03-14T10:11:44;4.17;;;4.17;;
24787;SDS011;12883;52.662;5.196;2023-03-14T10:14:10;3.97;;;3.97;;
24787;SDS011;12883;52.662;5.196;2023-03-14T10:16:44;4.40;;;4.30;;
24787;SDS011;12883;52.662;5.196;2023-03-14T10:19:12;4.43;;;4.33;;
24787;SDS011;12883;52.662;5.196;2023-03-14T10:21:57;4.77;;;4.67;;
24787;SDS011;12883;52.662;5.196;2023-03-14T10:24:30;3.33;;;3.27;;
24787;SDS011;12883;52.662;5.196;2023-03-14T10:27:04;4.13;;;4.03;;
24787;SDS011;12883;52.662;5.196;2023-03-14T10:29:31;4.87;;;4.77;;
24787;SDS011;12883;52.662;5.196;2023-03-14T10:31:59;4.13;;;4.10;;
24787;SDS011;12883;52.662;5.196;2023-03-14T10:34:29;3.97;;;3.90;;
24787;SDS011;12883;52.662;5.196;2023-03-14T10:36:57;3.87;;;3.87;;
24787;SDS011;12883;52.662;5.196;2023-03-14T10:39:33;2.80;;;2.80;;
24787;SDS011;12883;52.662;5.196;2023-03-14T10:42:15;3.60;;;3.60;;
24787;SDS011;12883;52.662;5.196;2023-03-14T10:44:45;2.60;;;2.60;;
24787;SDS011;12883;52.662;5.196;2023-03-14T10:47:19;3.00;;;3.00;;
24787;SDS011;12883;52.662;5.196;2023-03-14T10:49:47;3.63;;;3.63;;
24787;SDS011;12883;52.662;5.196;2023-03-14T10:54:55;3.57;;;3.57;;
24787;SDS011;12883;52.662;5.196;2023-03-14T10:57:22;3.20;;;3.20;;
24787;SDS011;12883;52.662;5.196;2023-03-14T10:59:48;2.97;;;2.97;;
24787;SDS011;12883;52.662;5.196;2023-03-14T11:05:06;3.23;;;3.23;;
24787;SDS011;12883;52.662;5.196;2023-03-14T11:07:39;2.60;;;2.60;;
24787;SDS011;12883;52.662;5.196;2023-03-14T11:10:20;3.37;;;3.37;;
24787;SDS011;12883;52.662;5.196;2023-03-14T11:21:02;2.90;;;2.90;;
24787;SDS011;12883;52.662;5.196;2023-03-14T11:31:45;2.27;;;2.27;;
24787;SDS011;12883;52.662;5.196;2023-03-14T11:36:41;1.90;;;1.90;;
24787;SDS011;12883;52.662;5.196;2023-03-14T11:39:18;2.10;;;2.10;;
24787;SDS011;12883;52.662;5.196;2023-03-14T11:41:54;2.03;;;2.03;;
24787;SDS011;12883;52.662;5.196;2023-03-14T11:52:20;2.40;;;2.40;;
24787;SDS011;12883;52.662;5.196;2023-03-14T11:57:25;2.33;;;2.33;;
24787;SDS011;12883;52.662;5.196;2023-03-14T12:10:24;2.07;;;2.07;;
24787;SDS011;12883;52.662;5.196;2023-03-14T12:12:50;2.30;;;2.30;;
24787;SDS011;12883;52.662;5.196;2023-03-14T12:15:19;2.30;;;2.30;;
24787;SDS011;12883;52.662;5.196;2023-03-14T12:17:46;2.27;;;2.27;;
24787;SDS011;12883;52.662;5.196;2023-03-14T12:20:19;2.50;;;2.50;;
24787;SDS011;12883;52.662;5.196;2023-03-14T12:22:50;2.53;;;2.53;;
24787;SDS011;12883;52.662;5.196;2023-03-14T12:25:19;2.33;;;2.33;;
24787;SDS011;12883;52.662;5.196;2023-03-14T12:30:26;2.83;;;2.83;;
24787;SDS011;12883;52.662;5.196;2023-03-14T12:35:35;2.90;;;2.90;;
24787;SDS011;12883;52.662;5.196;2023-03-14T12:38:03;2.70;;;2.70;;
24787;SDS011;12883;52.662;5.196;2023-03-14T12:40:39;2.00;;;2.00;;
24787;SDS011;12883;52.662;5.196;2023-03-14T12:43:24;2.33;;;2.33;;
24787;SDS011;12883;52.662;5.196;2023-03-14T12:51:35;2.10;;;2.10;;
24787;SDS011;12883;52.662;5.196;2023-03-14T13:01:38;1.60;;;1.60;;
24787;SDS011;12883;52.662;5.196;2023-03-14T13:04:12;1.60;;;1.60;;
24787;SDS011;12883;52.662;5.196;2023-03-14T13:06:52;1.80;;;1.80;;
24787;SDS011;12883;52.662;5.196;2023-03-14T13:11:55;2.00;;;2.00;;
24787;SDS011;12883;52.662;5.196;2023-03-14T13:14:25;1.97;;;1.97;;
24787;SDS011;12883;52.662;5.196;2023-03-14T13:16:53;1.40;;;1.40;;
24787;SDS011;12883;52.662;5.196;2023-03-14T13:19:19;1.80;;;1.80;;
24787;SDS011;12883;52.662;5.196;2023-03-14T13:21:50;1.50;;;1.50;;
24787;SDS011;12883;52.662;5.196;2023-03-14T13:24:25;1.50;;;1.50;;
24787;SDS011;12883;52.662;5.196;2023-03-14T13:26:53;2.60;;;2.60;;
24787;SDS011;12883;52.662;5.196;2023-03-14T13:32:13;1.70;;;1.70;;
24787;SDS011;12883;52.662;5.196;2023-03-14T13:34:45;1.87;;;1.87;;
24787;SDS011;12883;52.662;5.196;2023-03-14T13:37:30;1.87;;;1.87;;
24787;SDS011;12883;52.662;5.196;2023-03-14T13:39:57;1.63;;;1.63;;
24787;SDS011;12883;52.662;5.196;2023-03-14T13:42:24;2.13;;;2.13;;
24787;SDS011;12883;52.662;5.196;2023-03-14T13:44:53;2.00;;;2.00;;
24787;SDS011;12883;52.662;5.196;2023-03-14T13:47:20;2.00;;;2.00;;
24787;SDS011;12883;52.662;5.196;2023-03-14T13:49:48;2.30;;;2.30;;
24787;SDS011;12883;52.662;5.196;2023-03-14T13:52:21;2.17;;;2.17;;
24787;SDS011;12883;52.662;5.196;2023-03-14T13:54:53;1.97;;;1.97;;
24787;SDS011;12883;52.662;5.196;2023-03-14T13:57:19;2.00;;;2.00;;
24787;SDS011;12883;52.662;5.196;2023-03-14T13:59:45;1.60;;;1.60;;
24787;SDS011;12883;52.662;5.196;2023-03-14T14:02:24;1.97;;;1.97;;
24787;SDS011;12883;52.662;5.196;2023-03-14T14:04:50;2.20;;;2.20;;
24787;SDS011;12883;52.662;5.196;2023-03-14T14:07:16;2.93;;;2.93;;
24787;SDS011;12883;52.662;5.196;2023-03-14T14:09:52;2.27;;;2.27;;
24787;SDS011;12883;52.662;5.196;2023-03-14T14:12:22;1.53;;;1.53;;
24787;SDS011;12883;52.662;5.196;2023-03-14T14:14:58;1.77;;;1.77;;
24787;SDS011;12883;52.662;5.196;2023-03-14T14:17:32;2.33;;;2.33;;
24787;SDS011;12883;52.662;5.196;2023-03-14T14:20:05;1.37;;;1.37;;
24787;SDS011;12883;52.662;5.196;2023-03-14T14:22:34;2.30;;;2.30;;
24787;SDS011;12883;52.662;5.196;2023-03-14T14:25:00;2.23;;;2.23;;
24787;SDS011;12883;52.662;5.196;2023-03-14T14:27:32;1.80;;;1.80;;
24787;SDS011;12883;52.662;5.196;2023-03-14T14:30:03;2.00;;;2.00;;
24787;SDS011;12883;52.662;5.196;2023-03-14T14:32:34;1.77;;;1.77;;
24787;SDS011;12883;52.662;5.196;2023-03-14T14:35:04;2.37;;;2.37;;
24787;SDS011;12883;52.662;5.196;2023-03-14T14:37:32;2.87;;;2.87;;
24787;SDS011;12883;52.662;5.196;2023-03-14T14:40:09;1.77;;;1.77;;
24787;SDS011;12883;52.662;5.196;2023-03-14T14:42:42;1.87;;;1.87;;
24787;SDS011;12883;52.662;5.196;2023-03-14T14:45:16;2.20;;;2.20;;
24787;SDS011;12883;52.662;5.196;2023-03-14T14:48:17;2.60;;;2.60;;
24787;SDS011;12883;52.662;5.196;2023-03-14T14:50:38;2.80;;;2.80;;
24787;SDS011;12883;52.662;5.196;2023-03-14T14:56:15;1.50;;;1.50;;
24787;SDS011;12883;52.662;5.196;2023-03-14T14:58:44;2.30;;;2.30;;
24787;SDS011;12883;52.662;5.196;2023-03-14T15:01:14;1.80;;;1.80;;
24787;SDS011;12883;52.662;5.196;2023-03-14T15:03:42;2.87;;;2.87;;
24787;SDS011;12883;52.662;5.196;2023-03-14T15:06:10;2.23;;;2.23;;
24787;SDS011;12883;52.662;5.196;2023-03-14T15:08:38;2.67;;;2.67;;
24787;SDS011;12883;52.662;5.196;2023-03-14T15:11:03;2.57;;;2.57;;
24787;SDS011;12883;52.662;5.196;2023-03-14T15:13:29;2.30;;;2.30;;
24787;SDS011;12883;52.662;5.196;2023-03-14T15:15:55;2.37;;;2.37;;
24787;SDS011;12883;52.662;5.196;2023-03-14T15:18:21;2.40;;;2.40;;
24787;SDS011;12883;52.662;5.196;2023-03-14T15:20:49;2.17;;;2.17;;
24787;SDS011;12883;52.662;5.196;2023-03-14T15:23:15;2.07;;;2.07;;
24787;SDS011;12883;52.662;5.196;2023-03-14T15:25:42;1.30;;;1.30;;
24787;SDS011;12883;52.662;5.196;2023-03-14T15:28:16;1.93;;;1.93;;
24787;SDS011;12883;52.662;5.196;2023-03-14T15:30:50;1.80;;;1.80;;
24787;SDS011;12883;52.662;5.196;2023-03-14T15:33:17;1.50;;;1.50;;
24787;SDS011;12883;52.662;5.196;2023-03-14T15:35:43;2.60;;;2.60;;
24787;SDS011;12883;52.662;5.196;2023-03-14T15:38:12;1.93;;;1.93;;
24787;SDS011;12883;52.662;5.196;2023-03-14T15:40:40;1.87;;;1.87;;
24787;SDS011;12883;52.662;5.196;2023-03-14T15:43:06;7.07;;;6.97;;
24787;SDS011;12883;52.662;5.196;2023-03-14T15:45:31;2.47;;;2.47;;
24787;SDS011;12883;52.662;5.196;2023-03-14T15:47:56;2.93;;;2.93;;
24787;SDS011;12883;52.662;5.196;2023-03-14T15:50:22;2.23;;;2.23;;
24787;SDS011;12883;52.662;5.196;2023-03-14T15:52:48;1.80;;;1.80;;
24787;SDS011;12883;52.662;5.196;2023-03-14T15:55:13;2.53;;;2.53;;
24787;SDS011;12883;52.662;5.196;2023-03-14T15:57:39;2.83;;;2.83;;
24787;SDS011;12883;52.662;5.196;2023-03-14T16:00:05;2.47;;;2.47;;
24787;SDS011;12883;52.662;5.196;2023-03-14T16:02:36;2.60;;;2.60;;
24787;SDS011;12883;52.662;5.196;2023-03-14T16:05:05;2.00;;;2.00;;
24787;SDS011;12883;52.662;5.196;2023-03-14T16:07:30;2.77;;;2.77;;